sensor_id;sensor_type;location;lat;lon;timestamp;pressure;altitude;pressure_sealevel;temperature;humidity
76137;BME280;68622;53.128;17.966;2023-09-08T00:00:19;102195.14;;;16.84;72.55
76137;BME280;68622;53.128;17.966;2023-09-08T00:03:06;102195.36;;;16.95;72.33
76137;BME280;68622;53.128;17.966;2023-09-08T00:05:32;102196.27;;;16.93;72.16
76137;BME280;68622;53.128;17.966;2023-09-08T00:07:59;102193.31;;;16.91;72.10
76137;BME280;68622;53.128;17.966;2023-09-08T00:10:26;102190.61;;;16.88;72.23
76137;BME280;68622;53.128;17.966;2023-09-08T00:12:52;102193.13;;;16.85;72.16
76137;BME280;68622;53.128;17.966;2023-09-08T00:15:19;102193.02;;;16.73;72.45
76137;BME280;68622;53.128;17.966;2023-09-08T00:17:45;102194.27;;;16.61;72.89
76137;BME280;68622;53.128;17.966;2023-09-08T00:20:13;102191.64;;;16.57;73.04
76137;BME280;68622;53.128;17.966;2023-09-08T00:22:40;102190.31;;;16.54;73.15
76137;BME280;68622;53.128;17.966;2023-09-08T00:25:06;102188.83;;;16.51;73.12
76137;BME280;68622;53.128;17.966;2023-09-08T00:27:33;102189.67;;;16.48;73.08
76137;BME280;68622;53.128;17.966;2023-09-08T00:30:00;102189.46;;;16.46;73.29
76137;BME280;68622;53.128;17.966;2023-09-08T00:32:28;102193.55;;;16.46;73.28
76137;BME280;68622;53.128;17.966;2023-09-08T00:34:54;102192.23;;;16.42;73.39
76137;BME280;68622;53.128;17.966;2023-09-08T00:37:21;102186.17;;;16.53;73.08
76137;BME280;68622;53.128;17.966;2023-09-08T00:39:48;102187.08;;;16.57;72.90
76137;BME280;68622;53.128;17.966;2023-09-08T00:42:14;102188.86;;;16.57;72.71
76137;BME280;68622;53.128;17.966;2023-09-08T00:44:41;102188.13;;;16.55;72.81
76137;BME280;68622;53.128;17.966;2023-09-08T00:47:07;102191.09;;;16.53;73.00
76137;BME280;68622;53.128;17.966;2023-09-08T00:49:34;102193.29;;;16.52;72.99
76137;BME280;68622;53.128;17.966;2023-09-08T00:52:01;102191.74;;;16.52;72.86
76137;BME280;68622;53.128;17.966;2023-09-08T00:54:29;102191.41;;;16.52;72.72
76137;BME280;68622;53.128;17.966;2023-09-08T00:56:57;102188.19;;;16.52;72.74
76137;BME280;68622;53.128;17.966;2023-09-08T00:59:25;102188.60;;;16.54;72.66
76137;BME280;68622;53.128;17.966;2023-09-08T01:01:52;102188.73;;;16.52;72.66
76137;BME280;68622;53.128;17.966;2023-09-08T01:04:20;102185.20;;;16.50;72.60
76137;BME280;68622;53.128;17.966;2023-09-08T01:06:47;102182.34;;;16.49;72.62
76137;BME280;68622;53.128;17.966;2023-09-08T01:09:14;102181.45;;;16.49;72.52
76137;BME280;68622;53.128;17.966;2023-09-08T01:11:41;102180.42;;;16.49;72.60
76137;BME280;68622;53.128;17.966;2023-09-08T01:14:08;102183.05;;;16.49;72.50
76137;BME280;68622;53.128;17.966;2023-09-08T01:16:35;102179.89;;;16.49;72.43
76137;BME280;68622;53.128;17.966;2023-09-08T01:19:04;102183.81;;;16.48;72.47
76137;BME280;68622;53.128;17.966;2023-09-08T01:21:59;102186.86;;;16.46;72.51
76137;BME280;68622;53.128;17.966;2023-09-08T01:27:27;102186.42;;;16.35;72.66
76137;BME280;68622;53.128;17.966;2023-09-08T01:29:56;102184.48;;;16.31;72.71
76137;BME280;68622;53.128;17.966;2023-09-08T01:32:23;102180.20;;;16.13;73.20
76137;BME280;68622;53.128;17.966;2023-09-08T01:34:51;102183.02;;;16.11;73.32
76137;BME280;68622;53.128;17.966;2023-09-08T01:37:22;102178.01;;;16.23;72.88
76137;BME280;68622;53.128;17.966;2023-09-08T01:39:49;102179.48;;;16.24;72.80
76137;BME280;68622;53.128;17.966;2023-09-08T01:42:16;102175.13;;;16.19;73.10
76137;BME280;68622;53.128;17.966;2023-09-08T01:44:42;102171.34;;;16.06;73.61
76137;BME280;68622;53.128;17.966;2023-09-08T01:47:09;102169.92;;;16.02;73.72
76137;BME280;68622;53.128;17.966;2023-09-08T01:49:35;102169.93;;;16.00;73.79
76137;BME280;68622;53.128;17.966;2023-09-08T01:52:02;102172.17;;;15.97;73.87
76137;BME280;68622;53.128;17.966;2023-09-08T01:54:29;102173.40;;;15.92;73.82
76137;BME280;68622;53.128;17.966;2023-09-08T01:56:55;102172.80;;;15.89;73.84
76137;BME280;68622;53.128;17.966;2023-09-08T01:59:22;102168.38;;;15.86;73.89
76137;BME280;68622;53.128;17.966;2023-09-08T02:01:49;102167.71;;;15.81;73.89
76137;BME280;68622;53.128;17.966;2023-09-08T02:04:15;102167.54;;;15.78;73.97
76137;BME280;68622;53.128;17.966;2023-09-08T02:06:42;102169.69;;;15.75;73.95
76137;BME280;68622;53.128;17.966;2023-09-08T02:09:08;102166.61;;;15.72;73.96
76137;BME280;68622;53.128;17.966;2023-09-08T02:11:36;102166.89;;;15.69;73.94
76137;BME280;68622;53.128;17.966;2023-09-08T02:14:03;102170.23;;;15.65;73.91
76137;BME280;68622;53.128;17.966;2023-09-08T02:16:29;102169.11;;;15.62;73.91
76137;BME280;68622;53.128;17.966;2023-09-08T02:18:57;102170.94;;;15.59;74.02
76137;BME280;68622;53.128;17.966;2023-09-08T02:21:23;102169.80;;;15.56;73.98
76137;BME280;68622;53.128;17.966;2023-09-08T02:23:50;102172.02;;;15.52;74.19
76137;BME280;68622;53.128;17.966;2023-09-08T02:26:16;102169.48;;;15.49;74.18
76137;BME280;68622;53.128;17.966;2023-09-08T02:28:44;102171.11;;;15.46;74.46
76137;BME280;68622;53.128;17.966;2023-09-08T02:31:10;102171.13;;;15.44;74.39
76137;BME280;68622;53.128;17.966;2023-09-08T02:33:38;102167.98;;;15.42;74.32
76137;BME280;68622;53.128;17.966;2023-09-08T02:36:05;102169.14;;;15.39;74.22
76137;BME280;68622;53.128;17.966;2023-09-08T02:38:33;102166.56;;;15.36;74.22
76137;BME280;68622;53.128;17.966;2023-09-08T02:41:00;102164.66;;;15.34;74.31
76137;BME280;68622;53.128;17.966;2023-09-08T02:43:26;102163.84;;;15.31;74.29
76137;BME280;68622;53.128;17.966;2023-09-08T02:45:54;102160.54;;;15.29;74.44
76137;BME280;68622;53.128;17.966;2023-09-08T02:48:20;102160.16;;;15.27;74.42
76137;BME280;68622;53.128;17.966;2023-09-08T02:50:47;102159.16;;;15.27;74.41
76137;BME280;68622;53.128;17.966;2023-09-08T02:53:14;102153.27;;;15.26;74.58
76137;BME280;68622;53.128;17.966;2023-09-08T02:55:41;102157.00;;;15.25;74.44
76137;BME280;68622;53.128;17.966;2023-09-08T02:58:07;102152.48;;;15.25;74.21
76137;BME280;68622;53.128;17.966;2023-09-08T03:00:34;102150.23;;;15.27;74.10
76137;BME280;68622;53.128;17.966;2023-09-08T03:03:00;102152.13;;;15.27;74.17
76137;BME280;68622;53.128;17.966;2023-09-08T03:05:27;102152.06;;;15.26;74.13
76137;BME280;68622;53.128;17.966;2023-09-08T03:07:54;102152.64;;;15.23;74.02
76137;BME280;68622;53.128;17.966;2023-09-08T03:10:21;102152.64;;;15.21;74.21
76137;BME280;68622;53.128;17.966;2023-09-08T03:12:47;102151.40;;;15.19;74.20
76137;BME280;68622;53.128;17.966;2023-09-08T03:15:14;102148.99;;;15.18;74.30
76137;BME280;68622;53.128;17.966;2023-09-08T03:17:41;102147.45;;;15.18;74.52
76137;BME280;68622;53.128;17.966;2023-09-08T03:20:10;102146.06;;;15.18;74.68
76137;BME280;68622;53.128;17.966;2023-09-08T03:22:37;102143.36;;;15.15;74.59
76137;BME280;68622;53.128;17.966;2023-09-08T03:25:04;102140.11;;;15.14;74.42
76137;BME280;68622;53.128;17.966;2023-09-08T03:27:31;102140.84;;;15.14;74.47
76137;BME280;68622;53.128;17.966;2023-09-08T03:29:58;102142.91;;;15.14;74.56
76137;BME280;68622;53.128;17.966;2023-09-08T03:32:26;102140.89;;;15.13;74.90
76137;BME280;68622;53.128;17.966;2023-09-08T03:34:55;102143.20;;;15.13;74.79
76137;BME280;68622;53.128;17.966;2023-09-08T03:37:22;102144.80;;;15.13;74.99
76137;BME280;68622;53.128;17.966;2023-09-08T03:39:49;102143.98;;;15.14;74.85
76137;BME280;68622;53.128;17.966;2023-09-08T03:42:16;102144.09;;;15.16;74.98
76137;BME280;68622;53.128;17.966;2023-09-08T03:44:43;102144.03;;;15.19;74.87
76137;BME280;68622;53.128;17.966;2023-09-08T03:47:10;102139.76;;;15.21;74.84
76137;BME280;68622;53.128;17.966;2023-09-08T03:49:36;102143.97;;;15.18;74.78
76137;BME280;68622;53.128;17.966;2023-09-08T03:52:03;102144.23;;;15.15;74.86
76137;BME280;68622;53.128;17.966;2023-09-08T03:54:32;102145.41;;;15.13;74.87
76137;BME280;68622;53.128;17.966;2023-09-08T03:56:59;102146.77;;;15.12;74.83
76137;BME280;68622;53.128;17.966;2023-09-08T03:59:25;102146.00;;;15.08;74.74
76137;BME280;68622;53.128;17.966;2023-09-08T04:01:52;102147.80;;;15.06;74.70
76137;BME280;68622;53.128;17.966;2023-09-08T04:04:19;102144.17;;;15.04;74.68
76137;BME280;68622;53.128;17.966;2023-09-08T04:06:46;102148.75;;;15.01;74.66
76137;BME280;68622;53.128;17.966;2023-09-08T04:09:13;102150.72;;;14.98;74.55
76137;BME280;68622;53.128;17.966;2023-09-08T04:11:40;102150.75;;;14.96;74.57
76137;BME280;68622;53.128;17.966;2023-09-08T04:14:07;102149.60;;;14.95;74.45
76137;BME280;68622;53.128;17.966;2023-09-08T04:16:34;102151.54;;;14.95;74.42
76137;BME280;68622;53.128;17.966;2023-09-08T04:19:01;102151.11;;;14.94;74.51
76137;BME280;68622;53.128;17.966;2023-09-08T04:21:27;102151.56;;;14.93;74.57
76137;BME280;68622;53.128;17.966;2023-09-08T04:23:54;102152.70;;;14.91;74.42
76137;BME280;68622;53.128;17.966;2023-09-08T04:26:20;102153.42;;;14.91;74.38
76137;BME280;68622;53.128;17.966;2023-09-08T04:28:47;102148.52;;;14.91;74.55
76137;BME280;68622;53.128;17.966;2023-09-08T04:31:14;102149.83;;;14.92;74.40
76137;BME280;68622;53.128;17.966;2023-09-08T04:33:41;102148.46;;;14.92;74.47
76137;BME280;68622;53.128;17.966;2023-09-08T04:36:07;102151.80;;;14.92;74.33
76137;BME280;68622;53.128;17.966;2023-09-08T04:38:34;102148.88;;;14.93;74.40
76137;BME280;68622;53.128;17.966;2023-09-08T04:41:01;102151.55;;;14.95;74.25
76137;BME280;68622;53.128;17.966;2023-09-08T04:43:28;102152.54;;;14.96;74.37
76137;BME280;68622;53.128;17.966;2023-09-08T04:45:54;102152.34;;;14.98;74.43
76137;BME280;68622;53.128;17.966;2023-09-08T04:48:21;102149.55;;;15.02;74.30
76137;BME280;68622;53.128;17.966;2023-09-08T04:50:49;102152.77;;;15.05;74.24
76137;BME280;68622;53.128;17.966;2023-09-08T04:53:17;102153.05;;;15.10;74.27
76137;BME280;68622;53.128;17.966;2023-09-08T04:55:45;102156.67;;;15.14;74.30
76137;BME280;68622;53.128;17.966;2023-09-08T04:58:11;102155.05;;;15.19;74.23
76137;BME280;68622;53.128;17.966;2023-09-08T05:00:38;102152.47;;;15.25;74.31
76137;BME280;68622;53.128;17.966;2023-09-08T05:03:08;102153.07;;;15.31;74.25
76137;BME280;68622;53.128;17.966;2023-09-08T05:05:35;102153.09;;;15.36;74.19
76137;BME280;68622;53.128;17.966;2023-09-08T05:08:02;102152.05;;;15.40;74.07
76137;BME280;68622;53.128;17.966;2023-09-08T05:10:29;102153.98;;;15.44;73.96
76137;BME280;68622;53.128;17.966;2023-09-08T05:12:56;102156.02;;;15.49;74.16
76137;BME280;68622;53.128;17.966;2023-09-08T05:15:23;102156.86;;;15.53;73.97
76137;BME280;68622;53.128;17.966;2023-09-08T05:17:53;102154.52;;;15.61;74.09
76137;BME280;68622;53.128;17.966;2023-09-08T05:20:20;102156.14;;;15.68;73.96
76137;BME280;68622;53.128;17.966;2023-09-08T05:22:47;102156.41;;;15.73;73.99
76137;BME280;68622;53.128;17.966;2023-09-08T05:25:14;102157.77;;;15.79;73.80
76137;BME280;68622;53.128;17.966;2023-09-08T05:27:41;102156.00;;;15.85;73.98
76137;BME280;68622;53.128;17.966;2023-09-08T05:30:08;102162.05;;;15.92;73.96
76137;BME280;68622;53.128;17.966;2023-09-08T05:32:36;102162.41;;;16.02;73.95
76137;BME280;68622;53.128;17.966;2023-09-08T05:35:04;102155.71;;;16.14;73.90
76137;BME280;68622;53.128;17.966;2023-09-08T05:37:30;102153.65;;;16.29;73.68
76137;BME280;68622;53.128;17.966;2023-09-08T05:39:57;102157.64;;;16.47;73.45
76137;BME280;68622;53.128;17.966;2023-09-08T05:42:24;102155.30;;;16.65;73.32
76137;BME280;68622;53.128;17.966;2023-09-08T05:44:51;102156.64;;;16.84;72.98
76137;BME280;68622;53.128;17.966;2023-09-08T05:47:17;102157.71;;;16.98;72.74
76137;BME280;68622;53.128;17.966;2023-09-08T05:49:45;102154.64;;;17.15;72.39
76137;BME280;68622;53.128;17.966;2023-09-08T05:52:11;102156.77;;;17.29;72.16
76137;BME280;68622;53.128;17.966;2023-09-08T05:54:38;102156.06;;;17.42;71.94
76137;BME280;68622;53.128;17.966;2023-09-08T05:57:05;102156.28;;;17.57;71.84
76137;BME280;68622;53.128;17.966;2023-09-08T05:59:33;102155.00;;;17.70;71.46
76137;BME280;68622;53.128;17.966;2023-09-08T06:02:00;102153.23;;;17.83;71.56
76137;BME280;68622;53.128;17.966;2023-09-08T06:04:27;102151.83;;;17.92;71.38
76137;BME280;68622;53.128;17.966;2023-09-08T06:06:54;102155.61;;;18.02;71.18
76137;BME280;68622;53.128;17.966;2023-09-08T06:09:21;102153.30;;;18.13;70.67
76137;BME280;68622;53.128;17.966;2023-09-08T06:11:47;102150.13;;;18.28;70.65
76137;BME280;68622;53.128;17.966;2023-09-08T06:14:14;102149.35;;;18.42;70.45
76137;BME280;68622;53.128;17.966;2023-09-08T06:16:41;102145.35;;;18.56;70.22
76137;BME280;68622;53.128;17.966;2023-09-08T06:19:08;102142.36;;;18.72;70.25
76137;BME280;68622;53.128;17.966;2023-09-08T06:21:35;102137.59;;;18.86;70.09
76137;BME280;68622;53.128;17.966;2023-09-08T06:24:02;102134.88;;;18.99;69.56
76137;BME280;68622;53.128;17.966;2023-09-08T06:26:29;102133.23;;;19.12;69.21
76137;BME280;68622;53.128;17.966;2023-09-08T06:28:55;102128.86;;;19.27;69.46
76137;BME280;68622;53.128;17.966;2023-09-08T06:31:22;102128.54;;;19.42;69.04
76137;BME280;68622;53.128;17.966;2023-09-08T06:33:48;102126.41;;;19.54;69.06
76137;BME280;68622;53.128;17.966;2023-09-08T06:36:19;102122.34;;;19.78;68.13
76137;BME280;68622;53.128;17.966;2023-09-08T06:38:47;102127.52;;;20.00;67.44
76137;BME280;68622;53.128;17.966;2023-09-08T06:41:13;102125.39;;;20.17;67.61
76137;BME280;68622;53.128;17.966;2023-09-08T06:43:40;102125.35;;;20.33;67.20
76137;BME280;68622;53.128;17.966;2023-09-08T06:46:14;102126.77;;;20.50;67.01
76137;BME280;68622;53.128;17.966;2023-09-08T06:48:42;102125.96;;;20.64;66.79
76137;BME280;68622;53.128;17.966;2023-09-08T06:51:08;102124.73;;;20.80;66.79
76137;BME280;68622;53.128;17.966;2023-09-08T06:53:36;102124.38;;;20.94;66.12
76137;BME280;68622;53.128;17.966;2023-09-08T06:56:03;102120.55;;;21.09;66.28
76137;BME280;68622;53.128;17.966;2023-09-08T06:58:30;102118.95;;;21.26;65.56
76137;BME280;68622;53.128;17.966;2023-09-08T07:00:57;102117.11;;;21.40;65.24
76137;BME280;68622;53.128;17.966;2023-09-08T07:03:24;102119.08;;;21.53;65.16
76137;BME280;68622;53.128;17.966;2023-09-08T07:05:52;102113.53;;;21.63;64.98
76137;BME280;68622;53.128;17.966;2023-09-08T07:08:19;102111.15;;;21.74;64.26
76137;BME280;68622;53.128;17.966;2023-09-08T07:10:52;102111.73;;;21.81;62.56
76137;BME280;68622;53.128;17.966;2023-09-08T07:13:19;102107.63;;;21.96;63.09
76137;BME280;68622;53.128;17.966;2023-09-08T07:15:46;102107.82;;;22.08;62.94
76137;BME280;68622;53.128;17.966;2023-09-08T07:18:13;102103.93;;;22.05;63.55
76137;BME280;68622;53.128;17.966;2023-09-08T07:20:40;102100.77;;;22.26;63.57
76137;BME280;68622;53.128;17.966;2023-09-08T07:23:06;102104.69;;;22.41;63.17
76137;BME280;68622;53.128;17.966;2023-09-08T07:25:33;102103.86;;;22.55;62.70
76137;BME280;68622;53.128;17.966;2023-09-08T07:28:00;102109.01;;;22.65;62.67
76137;BME280;68622;53.128;17.966;2023-09-08T07:30:27;102105.20;;;22.68;61.95
76137;BME280;68622;53.128;17.966;2023-09-08T07:32:54;102106.83;;;22.69;61.96
76137;BME280;68622;53.128;17.966;2023-09-08T07:35:21;102106.16;;;22.94;61.57
76137;BME280;68622;53.128;17.966;2023-09-08T07:37:50;102102.63;;;23.07;60.96
76137;BME280;68622;53.128;17.966;2023-09-08T07:40:18;102104.40;;;23.21;60.56
76137;BME280;68622;53.128;17.966;2023-09-08T07:42:44;102105.58;;;23.33;59.26
76137;BME280;68622;53.128;17.966;2023-09-08T07:45:11;102106.76;;;23.42;57.12
76137;BME280;68622;53.128;17.966;2023-09-08T07:47:38;102107.00;;;23.47;57.61
76137;BME280;68622;53.128;17.966;2023-09-08T07:50:23;102105.21;;;23.46;56.83
76137;BME280;68622;53.128;17.966;2023-09-08T07:52:51;102101.27;;;23.55;56.73
76137;BME280;68622;53.128;17.966;2023-09-08T07:55:18;102098.32;;;23.65;56.85
76137;BME280;68622;53.128;17.966;2023-09-08T07:57:46;102098.52;;;23.76;57.53
76137;BME280;68622;53.128;17.966;2023-09-08T08:00:13;102101.80;;;23.87;57.13
76137;BME280;68622;53.128;17.966;2023-09-08T08:02:43;102101.11;;;23.97;56.54
76137;BME280;68622;53.128;17.966;2023-09-08T08:05:12;102098.39;;;24.03;54.35
76137;BME280;68622;53.128;17.966;2023-09-08T08:07:40;102100.04;;;24.20;54.09
76137;BME280;68622;53.128;17.966;2023-09-08T08:10:08;102097.33;;;24.32;54.41
76137;BME280;68622;53.128;17.966;2023-09-08T08:12:36;102097.09;;;24.38;52.85
76137;BME280;68622;53.128;17.966;2023-09-08T08:15:03;102095.44;;;24.49;53.75
76137;BME280;68622;53.128;17.966;2023-09-08T08:17:31;102087.39;;;24.54;52.46
76137;BME280;68622;53.128;17.966;2023-09-08T08:19:58;102087.75;;;24.62;51.64
76137;BME280;68622;53.128;17.966;2023-09-08T08:22:25;102088.12;;;24.81;51.99
76137;BME280;68622;53.128;17.966;2023-09-08T08:24:52;102087.69;;;24.89;51.97
76137;BME280;68622;53.128;17.966;2023-09-08T08:27:18;102084.22;;;24.97;52.64
76137;BME280;68622;53.128;17.966;2023-09-08T08:29:45;102081.33;;;25.00;52.71
76137;BME280;68622;53.128;17.966;2023-09-08T08:32:11;102082.82;;;25.09;52.35
76137;BME280;68622;53.128;17.966;2023-09-08T08:34:38;102079.63;;;25.30;51.58
76137;BME280;68622;53.128;17.966;2023-09-08T08:37:05;102078.34;;;25.45;51.99
76137;BME280;68622;53.128;17.966;2023-09-08T08:39:31;102077.07;;;25.45;51.89
76137;BME280;68622;53.128;17.966;2023-09-08T08:42:06;102073.55;;;25.37;51.65
76137;BME280;68622;53.128;17.966;2023-09-08T08:44:34;102072.34;;;25.41;52.21
76137;BME280;68622;53.128;17.966;2023-09-08T08:47:02;102065.30;;;25.48;52.16
76137;BME280;68622;53.128;17.966;2023-09-08T08:49:31;102063.45;;;25.48;48.81
76137;BME280;68622;53.128;17.966;2023-09-08T08:51:58;102062.41;;;25.52;49.33
76137;BME280;68622;53.128;17.966;2023-09-08T08:54:25;102059.61;;;25.59;50.01
76137;BME280;68622;53.128;17.966;2023-09-08T08:56:52;102061.90;;;25.67;49.67
76137;BME280;68622;53.128;17.966;2023-09-08T08:59:19;102058.71;;;25.75;49.97
76137;BME280;68622;53.128;17.966;2023-09-08T09:01:46;102061.48;;;25.83;49.06
76137;BME280;68622;53.128;17.966;2023-09-08T09:04:13;102060.22;;;25.91;49.10
76137;BME280;68622;53.128;17.966;2023-09-08T09:06:40;102060.88;;;25.97;49.01
76137;BME280;68622;53.128;17.966;2023-09-08T09:09:07;102057.20;;;26.04;48.60
76137;BME280;68622;53.128;17.966;2023-09-08T09:11:34;102052.73;;;26.09;48.05
76137;BME280;68622;53.128;17.966;2023-09-08T09:14:01;102057.64;;;26.15;48.06
76137;BME280;68622;53.128;17.966;2023-09-08T09:16:29;102053.70;;;26.17;45.64
76137;BME280;68622;53.128;17.966;2023-09-08T09:18:59;102057.41;;;26.25;45.16
76137;BME280;68622;53.128;17.966;2023-09-08T09:21:47;102057.23;;;26.33;46.39
76137;BME280;68622;53.128;17.966;2023-09-08T09:24:15;102055.77;;;26.39;46.27
76137;BME280;68622;53.128;17.966;2023-09-08T09:26:42;102054.50;;;26.46;45.84
76137;BME280;68622;53.128;17.966;2023-09-08T09:29:13;102050.88;;;26.52;46.02
76137;BME280;68622;53.128;17.966;2023-09-08T09:31:53;102050.33;;;26.59;46.15
76137;BME280;68622;53.128;17.966;2023-09-08T09:34:21;102047.95;;;26.59;43.28
76137;BME280;68622;53.128;17.966;2023-09-08T09:36:49;102048.38;;;26.70;45.46
76137;BME280;68622;53.128;17.966;2023-09-08T09:39:20;102038.76;;;26.75;45.37
76137;BME280;68622;53.128;17.966;2023-09-08T09:41:47;102041.05;;;26.78;45.62
76137;BME280;68622;53.128;17.966;2023-09-08T09:44:16;102036.96;;;26.83;45.22
76137;BME280;68622;53.128;17.966;2023-09-08T09:46:43;102036.50;;;26.89;45.80
76137;BME280;68622;53.128;17.966;2023-09-08T09:49:16;102034.25;;;26.92;43.93
76137;BME280;68622;53.128;17.966;2023-09-08T09:51:50;102034.86;;;26.95;44.26
76137;BME280;68622;53.128;17.966;2023-09-08T09:54:17;102032.39;;;26.97;43.77
76137;BME280;68622;53.128;17.966;2023-09-08T09:56:44;102028.40;;;26.95;42.55
76137;BME280;68622;53.128;17.966;2023-09-08T09:59:12;102028.33;;;26.94;43.28
76137;BME280;68622;53.128;17.966;2023-09-08T10:01:40;102025.19;;;26.95;42.93
76137;BME280;68622;53.128;17.966;2023-09-08T10:04:08;102020.30;;;26.94;43.48
76137;BME280;68622;53.128;17.966;2023-09-08T10:06:36;102018.91;;;26.95;43.14
76137;BME280;68622;53.128;17.966;2023-09-08T10:09:05;102020.98;;;27.01;42.67
76137;BME280;68622;53.128;17.966;2023-09-08T10:11:38;102020.86;;;27.08;42.70
76137;BME280;68622;53.128;17.966;2023-09-08T10:14:08;102020.22;;;27.15;41.48
76137;BME280;68622;53.128;17.966;2023-09-08T10:16:39;102016.00;;;27.20;41.30
76137;BME280;68622;53.128;17.966;2023-09-08T10:19:09;102012.72;;;27.27;42.26
76137;BME280;68622;53.128;17.966;2023-09-08T10:21:45;102010.85;;;27.30;40.88
76137;BME280;68622;53.128;17.966;2023-09-08T10:24:26;102005.77;;;27.29;39.70
76137;BME280;68622;53.128;17.966;2023-09-08T10:27:09;102004.34;;;27.32;40.65
76137;BME280;68622;53.128;17.966;2023-09-08T10:29:39;102001.63;;;27.39;41.39
76137;BME280;68622;53.128;17.966;2023-09-08T10:32:09;102001.21;;;27.39;40.29
76137;BME280;68622;53.128;17.966;2023-09-08T10:34:37;101999.12;;;27.40;41.13
76137;BME280;68622;53.128;17.966;2023-09-08T10:37:18;101999.19;;;27.42;42.22
76137;BME280;68622;53.128;17.966;2023-09-08T10:39:45;101999.05;;;27.44;42.04
76137;BME280;68622;53.128;17.966;2023-09-08T10:47:14;101989.94;;;27.47;41.31
76137;BME280;68622;53.128;17.966;2023-09-08T10:49:45;101992.76;;;27.52;41.10
76137;BME280;68622;53.128;17.966;2023-09-08T10:52:12;101990.69;;;27.57;41.02
76137;BME280;68622;53.128;17.966;2023-09-08T10:54:49;101989.40;;;27.60;40.65
76137;BME280;68622;53.128;17.966;2023-09-08T10:57:17;101983.60;;;27.61;40.34
76137;BME280;68622;53.128;17.966;2023-09-08T10:59:48;101986.52;;;27.59;40.59
76137;BME280;68622;53.128;17.966;2023-09-08T11:02:50;101984.57;;;27.53;40.30
76137;BME280;68622;53.128;17.966;2023-09-08T11:05:21;101981.45;;;27.51;39.00
76137;BME280;68622;53.128;17.966;2023-09-08T11:07:48;101983.77;;;27.63;40.06
76137;BME280;68622;53.128;17.966;2023-09-08T11:10:19;101977.42;;;27.65;39.95
76137;BME280;68622;53.128;17.966;2023-09-08T11:12:46;101977.90;;;27.68;40.32
76137;BME280;68622;53.128;17.966;2023-09-08T11:15:12;101974.23;;;27.74;40.42
76137;BME280;68622;53.128;17.966;2023-09-08T11:17:39;101972.25;;;27.80;39.95
76137;BME280;68622;53.128;17.966;2023-09-08T11:20:08;101976.46;;;27.88;39.63
76137;BME280;68622;53.128;17.966;2023-09-08T11:22:38;101970.95;;;27.96;39.43
76137;BME280;68622;53.128;17.966;2023-09-08T11:25:08;101964.67;;;28.03;39.71
76137;BME280;68622;53.128;17.966;2023-09-08T11:27:37;101965.86;;;28.08;39.25
76137;BME280;68622;53.128;17.966;2023-09-08T11:30:07;101962.61;;;28.07;38.46
76137;BME280;68622;53.128;17.966;2023-09-08T11:32:35;101959.73;;;28.07;38.68
76137;BME280;68622;53.128;17.966;2023-09-08T11:35:07;101957.59;;;28.07;39.31
76137;BME280;68622;53.128;17.966;2023-09-08T11:37:41;101953.19;;;28.07;38.98
76137;BME280;68622;53.128;17.966;2023-09-08T11:40:10;101952.08;;;28.07;39.28
76137;BME280;68622;53.128;17.966;2023-09-08T11:42:43;101953.06;;;28.07;39.02
76137;BME280;68622;53.128;17.966;2023-09-08T11:45:11;101951.38;;;28.07;38.75
76137;BME280;68622;53.128;17.966;2023-09-08T11:47:40;101952.48;;;28.08;39.03
76137;BME280;68622;53.128;17.966;2023-09-08T11:50:09;101949.92;;;28.09;38.11
76137;BME280;68622;53.128;17.966;2023-09-08T11:52:38;101948.92;;;28.09;37.59
76137;BME280;68622;53.128;17.966;2023-09-08T11:55:05;101944.40;;;28.05;37.41
76137;BME280;68622;53.128;17.966;2023-09-08T11:57:33;101942.90;;;28.07;38.04
76137;BME280;68622;53.128;17.966;2023-09-08T12:00:00;101937.10;;;28.06;37.94
76137;BME280;68622;53.128;17.966;2023-09-08T12:02:35;101938.19;;;28.10;38.39
76137;BME280;68622;53.128;17.966;2023-09-08T12:05:03;101935.70;;;28.14;38.44
76137;BME280;68622;53.128;17.966;2023-09-08T12:07:30;101930.59;;;28.19;38.57
76137;BME280;68622;53.128;17.966;2023-09-08T12:09:57;101928.64;;;28.24;38.24
76137;BME280;68622;53.128;17.966;2023-09-08T12:12:26;101925.84;;;28.29;38.41
76137;BME280;68622;53.128;17.966;2023-09-08T12:14:53;101926.14;;;28.28;37.53
76137;BME280;68622;53.128;17.966;2023-09-08T12:17:21;101919.94;;;28.27;37.45
76137;BME280;68622;53.128;17.966;2023-09-08T12:19:51;101918.79;;;28.30;38.08
76137;BME280;68622;53.128;17.966;2023-09-08T12:22:18;101917.68;;;28.30;37.27
76137;BME280;68622;53.128;17.966;2023-09-08T12:24:55;101911.82;;;28.31;37.23
76137;BME280;68622;53.128;17.966;2023-09-08T12:27:23;101909.14;;;28.31;37.32
76137;BME280;68622;53.128;17.966;2023-09-08T12:29:53;101910.91;;;28.33;37.45
76137;BME280;68622;53.128;17.966;2023-09-08T12:32:22;101908.07;;;28.37;37.32
76137;BME280;68622;53.128;17.966;2023-09-08T12:34:51;101901.08;;;28.38;36.64
76137;BME280;68622;53.128;17.966;2023-09-08T12:37:22;101904.73;;;28.38;37.12
76137;BME280;68622;53.128;17.966;2023-09-08T12:39:50;101897.98;;;28.36;36.82
76137;BME280;68622;53.128;17.966;2023-09-08T12:42:17;101898.71;;;28.39;37.28
76137;BME280;68622;53.128;17.966;2023-09-08T12:44:45;101894.95;;;28.41;37.14
76137;BME280;68622;53.128;17.966;2023-09-08T12:47:11;101893.84;;;28.41;37.41
76137;BME280;68622;53.128;17.966;2023-09-08T12:49:41;101892.10;;;28.42;37.05
76137;BME280;68622;53.128;17.966;2023-09-08T12:52:08;101889.16;;;28.46;37.85